DFFD/OUA METAR and TAF weather

Enter ICAO airport designator
Station Type Date Time Source
DFFD METAR 2021/04/14 20:00 UTC NOAA

DFFD 142000Z 21002KT CAVOK 34/15 Q1009 NOSIG


Station Type Date Time Source
DFFD Decoded METAR 2021/04/14 20:00 UTC NOAA

Ouagadougou, Burkina Faso (DFFD) 12-21N 001-31W 306M
Apr 14, 2021 - 04:00 PM EDT / 2021.04.14 2000 UTC
Wind: from the SSW (210 degrees) at 2 MPH (2 KT):0
Visibility: greater than 7 mile(s):0
Temperature: 93 F (34 C)
Dew Point: 59 F (15 C)
Relative Humidity: 32%
Pressure (altimeter): 29.80 in. Hg (1009 hPa)
ob: DFFD 142000Z 21002KT CAVOK 34/15 Q1009 NOSIG
cycle: 20

Station Type Date Time Source
DFFD TAF 2021/04/14 18:15 UTC NOAA

TAF TAF DFFD 141700Z 1418/1524 20008KT CAVOK

Example: see airport list